createdAt,value
2018-07-11T00:04:59.556Z,10.83
2018-07-11T00:10:02.634Z,11.67
2018-07-11T00:15:05.957Z,11.63
2018-07-11T00:20:08.893Z,13.50
2018-07-11T00:25:12.070Z,14.03
2018-07-11T00:30:15.129Z,13.27
2018-07-11T00:35:18.193Z,13.40
2018-07-11T00:40:21.256Z,14.93
2018-07-11T00:45:24.320Z,14.13
2018-07-11T00:50:27.402Z,14.83
2018-07-11T00:55:30.465Z,14.57
2018-07-11T01:00:33.549Z,13.97
2018-07-11T01:05:36.706Z,14.33
2018-07-11T01:10:39.768Z,13.87
2018-07-11T01:15:42.841Z,14.63
2018-07-11T01:20:46.384Z,14.83
2018-07-11T01:25:49.440Z,14.37
2018-07-11T01:30:52.512Z,13.80
2018-07-11T01:35:55.581Z,19.40
2018-07-11T01:40:58.641Z,14.53
2018-07-11T01:46:01.709Z,14.03
2018-07-11T01:51:04.809Z,13.70
2018-07-11T01:56:07.921Z,13.53
2018-07-11T02:01:10.988Z,14.97
2018-07-11T02:06:14.155Z,12.27
2018-07-11T02:11:17.201Z,13.63
2018-07-11T02:16:20.261Z,13.93
2018-07-11T02:21:24.845Z,17.87
2018-07-11T02:26:27.929Z,19.40
2018-07-11T02:31:31.334Z,17.17
2018-07-11T02:36:34.401Z,9.00
2018-07-11T02:41:37.468Z,10.23
2018-07-11T02:46:46.014Z,8.93
2018-07-11T02:51:49.073Z,9.33
2018-07-11T02:56:52.248Z,9.90
2018-07-11T03:01:55.348Z,12.23
2018-07-11T03:06:58.393Z,9.33
2018-07-11T03:12:01.461Z,11.00
2018-07-11T03:17:04.550Z,11.97
2018-07-11T03:22:07.660Z,11.57
2018-07-11T03:27:10.805Z,11.20
2018-07-11T03:32:13.996Z,10.03
2018-07-11T03:37:17.066Z,15.80
2018-07-11T03:42:20.117Z,25.13
2018-07-11T03:47:23.184Z,28.43
2018-07-11T03:52:26.253Z,27.80
2018-07-11T03:57:29.385Z,26.67
2018-07-11T04:02:32.444Z,26.67
2018-07-11T04:07:35.552Z,28.30
2018-07-11T04:12:38.612Z,31.60
2018-07-11T04:17:41.667Z,31.63
2018-07-11T04:22:44.773Z,33.17
2018-07-11T04:27:48.127Z,32.53
2018-07-11T04:32:51.299Z,32.60
2018-07-11T04:37:54.365Z,28.30
2018-07-11T04:42:57.593Z,16.53
2018-07-11T04:48:00.661Z,13.97
2018-07-11T04:53:05.973Z,17.17
2018-07-11T04:58:09.041Z,15.07
2018-07-11T05:03:12.121Z,15.30
2018-07-11T05:08:15.190Z,15.10
2018-07-11T05:13:18.253Z,14.30
2018-07-11T05:18:21.302Z,12.57
2018-07-11T05:23:24.373Z,10.47
2018-07-11T05:28:27.416Z,12.00
2018-07-11T05:33:30.489Z,11.20
2018-07-11T05:38:33.933Z,12.67
2018-07-11T05:43:37.008Z,11.97
2018-07-11T05:48:40.062Z,11.37
2018-07-11T05:53:43.121Z,12.83
2018-07-11T05:58:46.199Z,12.80
2018-07-11T06:03:49.252Z,13.87
2018-07-11T06:08:52.310Z,12.10
2018-07-11T06:13:55.362Z,10.63
2018-07-11T06:18:58.413Z,10.80
2018-07-11T06:24:01.480Z,10.63
2018-07-11T06:29:04.569Z,10.63
2018-07-11T06:34:07.642Z,5.97
2018-07-11T06:39:10.708Z,7.40
2018-07-11T06:44:13.797Z,7.57
2018-07-11T06:49:16.861Z,8.03
2018-07-11T06:54:19.924Z,8.07
2018-07-11T06:59:23.001Z,8.70
2018-07-11T07:04:26.070Z,8.20
2018-07-11T07:09:29.124Z,9.63
2018-07-11T07:14:32.197Z,10.33
2018-07-11T07:19:35.263Z,9.83
2018-07-11T07:24:38.338Z,10.13
2018-07-11T07:29:41.385Z,9.80
2018-07-11T07:34:44.507Z,10.50
2018-07-11T07:39:47.493Z,11.10
2018-07-11T07:44:50.569Z,12.70
2018-07-11T07:49:53.629Z,12.57
2018-07-11T07:54:56.696Z,8.90
2018-07-11T07:59:59.764Z,10.17
2018-07-11T08:05:04.981Z,9.70
2018-07-11T08:10:08.836Z,15.03
2018-07-11T08:15:11.889Z,13.33
2018-07-11T08:20:14.957Z,10.17
2018-07-11T08:25:29.238Z,14.37
2018-07-11T08:30:51.661Z,13.70
2018-07-11T08:36:06.210Z,12.93
2018-07-11T08:41:18.014Z,11.13
2018-07-11T08:48:38.615Z,12.30
2018-07-11T08:54:01.599Z,11.47
2018-07-11T08:59:15.574Z,9.60
2018-07-11T09:04:48.073Z,8.60
2018-07-11T09:10:10.536Z,9.07
2018-07-11T09:15:24.569Z,9.37
2018-07-11T09:20:46.153Z,8.70
2018-07-11T09:25:49.309Z,9.00
2018-07-11T09:30:52.353Z,8.27
2018-07-11T09:35:55.409Z,10.43
2018-07-11T09:40:58.478Z,9.47
2018-07-11T09:46:01.529Z,8.77
2018-07-11T09:51:05.329Z,9.37
2018-07-11T09:56:08.385Z,10.10
2018-07-11T10:01:16.804Z,10.43
2018-07-11T10:06:19.889Z,10.67
2018-07-11T10:11:22.940Z,10.33
2018-07-11T10:16:25.992Z,19.80
2018-07-11T10:21:29.676Z,26.70
2018-07-11T10:26:32.729Z,25.77
2018-07-11T10:31:35.786Z,25.30
2018-07-11T10:36:38.837Z,27.23
2018-07-11T10:41:41.882Z,26.03
2018-07-11T10:46:44.945Z,26.40
2018-07-11T10:51:47.997Z,25.67
2018-07-11T10:56:51.068Z,21.50
2018-07-11T11:01:54.113Z,24.10
2018-07-11T11:06:57.392Z,23.33
2018-07-11T11:12:02.502Z,23.13
2018-07-11T11:17:05.611Z,21.93
2018-07-11T11:22:08.949Z,22.37
2018-07-11T11:27:12.022Z,24.70
2018-07-11T11:32:15.093Z,23.90
2018-07-11T11:37:18.209Z,25.50
2018-07-11T11:42:22.013Z,25.07
2018-07-11T11:47:26.107Z,25.47
2018-07-11T11:52:29.169Z,25.13
2018-07-11T11:57:33.037Z,24.03
2018-07-11T12:02:36.093Z,26.43
2018-07-11T12:07:39.153Z,27.07
2018-07-11T12:12:42.254Z,27.20
2018-07-11T12:17:45.310Z,24.77
2018-07-11T12:22:48.482Z,24.23
2018-07-11T12:27:51.546Z,25.27
2018-07-11T12:32:54.609Z,25.30
2018-07-11T12:37:57.684Z,23.50
2018-07-11T12:43:01.811Z,26.97
2018-07-11T12:48:10.271Z,25.20
2018-07-11T12:53:13.341Z,24.00
2018-07-11T12:58:17.078Z,26.07
2018-07-11T13:03:20.165Z,27.37
2018-07-11T13:08:23.238Z,23.73
2018-07-11T13:13:26.305Z,24.80
2018-07-11T13:18:29.377Z,23.20
2018-07-11T13:23:32.453Z,23.67
2018-07-11T13:28:36.241Z,23.53
2018-07-11T13:33:39.746Z,20.30
2018-07-11T13:38:42.812Z,21.20
2018-07-11T13:43:45.897Z,19.37
2018-07-11T13:48:49.034Z,24.17
2018-07-11T13:53:52.118Z,20.40
2018-07-11T13:58:55.203Z,19.63
2018-07-11T14:03:58.293Z,18.37
2018-07-11T14:09:04.317Z,18.03
2018-07-11T14:14:08.491Z,16.83
2018-07-11T14:19:11.501Z,15.53
2018-07-11T14:24:14.570Z,14.10
2018-07-11T14:29:18.437Z,13.20
2018-07-11T14:34:21.597Z,13.07
2018-07-11T14:39:24.646Z,13.87
2018-07-11T14:44:28.135Z,14.37
2018-07-11T14:49:31.181Z,14.70
2018-07-11T14:54:34.229Z,15.20
2018-07-11T14:59:37.338Z,16.00
2018-07-11T15:04:40.410Z,15.83
2018-07-11T15:09:43.490Z,17.60
2018-07-11T15:14:46.612Z,17.37
2018-07-11T15:19:49.733Z,17.70
2018-07-11T15:24:52.824Z,18.13
2018-07-11T15:29:56.200Z,17.00
2018-07-11T15:34:59.318Z,16.80
2018-07-11T15:40:03.193Z,18.67
2018-07-11T15:45:06.437Z,17.33
2018-07-11T15:50:09.513Z,18.03
2018-07-11T15:55:18.233Z,18.00
2018-07-11T16:00:32.610Z,17.37
2018-07-11T16:05:39.139Z,18.13
2018-07-11T16:10:44.761Z,17.43
2018-07-11T16:15:47.857Z,17.47
2018-07-11T16:20:51.314Z,17.70
2018-07-11T16:25:54.411Z,17.47
2018-07-11T16:30:57.456Z,17.93
2018-07-11T16:36:00.587Z,19.17
2018-07-11T16:41:03.781Z,18.47
2018-07-11T16:46:06.849Z,19.63
2018-07-11T16:51:09.905Z,18.77
2018-07-11T16:56:12.981Z,17.57
2018-07-11T17:01:16.092Z,18.87
2018-07-11T17:06:19.315Z,19.77
2018-07-11T17:11:24.454Z,21.67
2018-07-11T17:16:36.157Z,21.40
2018-07-11T17:21:45.037Z,19.07
2018-07-11T17:26:53.462Z,18.97
2018-07-11T17:32:01.056Z,17.93
2018-07-11T17:37:05.420Z,17.13
2018-07-11T17:42:08.476Z,20.90
2018-07-11T17:47:11.597Z,22.23
2018-07-11T17:52:14.682Z,22.40
2018-07-11T17:57:24.118Z,22.77
2018-07-11T18:02:30.793Z,23.53
2018-07-11T18:07:52.712Z,24.73
2018-07-11T18:12:56.900Z,24.17
2018-07-11T18:20:18.249Z,27.37
2018-07-11T18:25:32.478Z,23.80
2018-07-11T18:30:41.242Z,26.00
2018-07-11T18:35:56.388Z,24.90
2018-07-11T18:41:08.736Z,25.03
2018-07-11T18:46:18.605Z,24.23
2018-07-11T18:51:29.109Z,23.87
2018-07-11T18:56:47.122Z,25.37
2018-07-11T19:01:59.201Z,21.03
2018-07-11T19:07:08.963Z,20.77
2018-07-11T19:12:21.102Z,22.07
2018-07-11T19:17:39.093Z,21.57
2018-07-11T19:22:54.413Z,24.03
2018-07-11T19:28:08.733Z,21.00
2018-07-11T19:33:26.978Z,21.47
2018-07-11T19:38:35.338Z,20.07
2018-07-11T19:45:51.361Z,23.00
2018-07-11T19:51:05.557Z,21.90
2018-07-11T19:56:18.787Z,21.17
2018-07-11T20:01:21.919Z,21.17
2018-07-11T20:06:24.994Z,20.63
2018-07-11T20:11:28.598Z,24.83
2018-07-11T20:16:31.784Z,20.23
2018-07-11T20:21:34.846Z,20.20
2018-07-11T20:26:38.984Z,21.67
2018-07-11T20:31:42.085Z,20.07
2018-07-11T20:36:45.168Z,19.87
2018-07-11T20:41:48.738Z,20.43
2018-07-11T20:46:51.829Z,19.20
2018-07-11T20:51:54.925Z,22.50
2018-07-11T20:56:58.277Z,21.27
2018-07-11T21:02:12.681Z,22.63
2018-07-11T21:07:25.342Z,47.37
2018-07-11T21:12:46.057Z,22.30
2018-07-11T21:18:02.742Z,21.87
2018-07-11T21:23:05.878Z,21.13
2018-07-11T21:28:08.893Z,20.43
2018-07-11T21:33:11.973Z,19.30
2018-07-11T21:38:15.063Z,19.90
2018-07-11T21:43:18.117Z,19.57
2018-07-11T21:48:21.249Z,20.63
2018-07-11T21:53:24.389Z,19.20
2018-07-11T21:58:27.793Z,21.43
2018-07-11T22:03:30.862Z,21.80
2018-07-11T22:08:34.077Z,21.53
2018-07-11T22:13:37.173Z,23.70
2018-07-11T22:18:43.503Z,19.40
2018-07-11T22:23:45.649Z,22.77
2018-07-11T22:28:47.805Z,20.33
2018-07-11T22:33:49.953Z,20.30
2018-07-11T22:38:52.102Z,21.57
2018-07-11T22:43:54.252Z,21.50
2018-07-11T22:48:56.405Z,21.60
2018-07-11T22:53:58.565Z,23.63
2018-07-11T22:59:00.718Z,22.27
2018-07-11T23:04:02.865Z,21.00
2018-07-11T23:09:05.017Z,24.43
2018-07-11T23:14:07.180Z,22.23
2018-07-11T23:19:09.329Z,20.83
2018-07-11T23:24:11.477Z,22.37
2018-07-11T23:29:13.678Z,25.70
2018-07-11T23:34:15.821Z,25.10
2018-07-11T23:39:17.974Z,26.73
2018-07-11T23:44:20.122Z,27.13
2018-07-11T23:49:22.269Z,26.87
2018-07-11T23:54:24.417Z,27.03
2018-07-11T23:59:26.572Z,25.20
